sensor_id;sensor_type;location;lat;lon;timestamp;temperature;humidity
32664;DHT22;19847;48.670;9.242;2022-07-26T00:03:03;23.40;74.60
32664;DHT22;19847;48.670;9.242;2022-07-26T00:06:25;23.40;75.00
32664;DHT22;19847;48.670;9.242;2022-07-26T00:09:47;23.30;75.30
32664;DHT22;19847;48.670;9.242;2022-07-26T00:13:11;23.30;75.50
32664;DHT22;19847;48.670;9.242;2022-07-26T00:16:33;23.20;76.30
32664;DHT22;19847;48.670;9.242;2022-07-26T00:19:55;23.20;76.20
32664;DHT22;19847;48.670;9.242;2022-07-26T00:23:17;23.20;76.50
32664;DHT22;19847;48.670;9.242;2022-07-26T00:26:39;23.20;76.90
32664;DHT22;19847;48.670;9.242;2022-07-26T00:30:03;23.20;76.70
32664;DHT22;19847;48.670;9.242;2022-07-26T00:33:25;23.20;76.70
32664;DHT22;19847;48.670;9.242;2022-07-26T00:36:47;23.20;77.30
32664;DHT22;19847;48.670;9.242;2022-07-26T00:40:10;23.10;78.30
32664;DHT22;19847;48.670;9.242;2022-07-26T00:43:32;23.00;77.80
32664;DHT22;19847;48.670;9.242;2022-07-26T00:46:57;22.90;78.30
32664;DHT22;19847;48.670;9.242;2022-07-26T00:50:19;22.90;79.10
32664;DHT22;19847;48.670;9.242;2022-07-26T00:53:41;22.90;79.70
32664;DHT22;19847;48.670;9.242;2022-07-26T00:57:03;22.90;79.50
32664;DHT22;19847;48.670;9.242;2022-07-26T01:00:25;22.90;80.00
32664;DHT22;19847;48.670;9.242;2022-07-26T01:03:51;22.90;80.50
32664;DHT22;19847;48.670;9.242;2022-07-26T01:07:14;22.90;80.60
32664;DHT22;19847;48.670;9.242;2022-07-26T01:10:36;22.90;80.90
32664;DHT22;19847;48.670;9.242;2022-07-26T01:13:58;23.00;80.80
32664;DHT22;19847;48.670;9.242;2022-07-26T01:17:20;23.00;80.50
32664;DHT22;19847;48.670;9.242;2022-07-26T01:20:43;23.00;81.00
32664;DHT22;19847;48.670;9.242;2022-07-26T01:24:06;22.90;81.40
32664;DHT22;19847;48.670;9.242;2022-07-26T01:27:29;23.00;81.70
32664;DHT22;19847;48.670;9.242;2022-07-26T01:30:55;22.90;82.10
32664;DHT22;19847;48.670;9.242;2022-07-26T01:34:17;22.90;82.00
32664;DHT22;19847;48.670;9.242;2022-07-26T01:37:40;22.90;81.90
32664;DHT22;19847;48.670;9.242;2022-07-26T01:41:03;22.90;82.40
32664;DHT22;19847;48.670;9.242;2022-07-26T01:44:25;23.00;82.60
32664;DHT22;19847;48.670;9.242;2022-07-26T01:47:47;22.90;83.00
32664;DHT22;19847;48.670;9.242;2022-07-26T01:51:09;22.90;83.00
32664;DHT22;19847;48.670;9.242;2022-07-26T01:54:31;22.80;85.00
32664;DHT22;19847;48.670;9.242;2022-07-26T01:57:54;22.60;86.30
32664;DHT22;19847;48.670;9.242;2022-07-26T02:01:16;22.50;87.80
32664;DHT22;19847;48.670;9.242;2022-07-26T02:04:58;22.30;88.90
32664;DHT22;19847;48.670;9.242;2022-07-26T02:08:19;22.20;89.60
32664;DHT22;19847;48.670;9.242;2022-07-26T02:11:44;22.00;90.30
32664;DHT22;19847;48.670;9.242;2022-07-26T02:15:08;22.00;90.90
32664;DHT22;19847;48.670;9.242;2022-07-26T02:18:30;22.00;91.00
32664;DHT22;19847;48.670;9.242;2022-07-26T02:21:52;21.90;91.50
32664;DHT22;19847;48.670;9.242;2022-07-26T02:25:14;21.90;91.30
32664;DHT22;19847;48.670;9.242;2022-07-26T02:28:36;22.00;91.10
32664;DHT22;19847;48.670;9.242;2022-07-26T02:31:59;22.10;91.00
32664;DHT22;19847;48.670;9.242;2022-07-26T02:35:21;22.10;91.30
32664;DHT22;19847;48.670;9.242;2022-07-26T02:38:42;22.10;91.40
32664;DHT22;19847;48.670;9.242;2022-07-26T02:42:04;22.10;91.60
32664;DHT22;19847;48.670;9.242;2022-07-26T02:45:26;22.10;92.00
32664;DHT22;19847;48.670;9.242;2022-07-26T02:48:50;22.10;92.20
32664;DHT22;19847;48.670;9.242;2022-07-26T02:52:12;22.10;92.70
32664;DHT22;19847;48.670;9.242;2022-07-26T02:55:33;22.20;93.00
32664;DHT22;19847;48.670;9.242;2022-07-26T02:58:56;22.00;95.90
32664;DHT22;19847;48.670;9.242;2022-07-26T03:02:17;21.90;99.60
32664;DHT22;19847;48.670;9.242;2022-07-26T03:05:41;21.80;99.90
32664;DHT22;19847;48.670;9.242;2022-07-26T03:09:03;21.80;99.90
32664;DHT22;19847;48.670;9.242;2022-07-26T03:12:25;21.60;99.90
32664;DHT22;19847;48.670;9.242;2022-07-26T03:15:47;21.60;99.90
32664;DHT22;19847;48.670;9.242;2022-07-26T03:19:09;21.50;99.90
32664;DHT22;19847;48.670;9.242;2022-07-26T03:22:34;21.60;99.90
32664;DHT22;19847;48.670;9.242;2022-07-26T03:25:55;21.50;99.90
32664;DHT22;19847;48.670;9.242;2022-07-26T03:29:17;21.40;99.90
32664;DHT22;19847;48.670;9.242;2022-07-26T03:32:40;21.40;99.90
32664;DHT22;19847;48.670;9.242;2022-07-26T03:36:02;21.50;99.90
32664;DHT22;19847;48.670;9.242;2022-07-26T03:39:25;21.50;99.90
32664;DHT22;19847;48.670;9.242;2022-07-26T03:42:47;21.50;99.90
32664;DHT22;19847;48.670;9.242;2022-07-26T03:46:09;21.50;99.90
32664;DHT22;19847;48.670;9.242;2022-07-26T03:49:31;21.60;99.90
32664;DHT22;19847;48.670;9.242;2022-07-26T03:52:53;21.50;99.90
32664;DHT22;19847;48.670;9.242;2022-07-26T03:56:16;21.50;99.90
32664;DHT22;19847;48.670;9.242;2022-07-26T03:59:38;21.50;99.90
32664;DHT22;19847;48.670;9.242;2022-07-26T04:03:00;21.50;99.90
32664;DHT22;19847;48.670;9.242;2022-07-26T04:06:22;21.40;99.90
32664;DHT22;19847;48.670;9.242;2022-07-26T04:09:44;21.30;99.90
32664;DHT22;19847;48.670;9.242;2022-07-26T04:13:07;21.20;99.90
32664;DHT22;19847;48.670;9.242;2022-07-26T04:16:29;21.20;99.90
32664;DHT22;19847;48.670;9.242;2022-07-26T04:19:51;21.20;99.90
32664;DHT22;19847;48.670;9.242;2022-07-26T04:23:13;21.10;99.90
32664;DHT22;19847;48.670;9.242;2022-07-26T04:26:35;21.10;99.90
32664;DHT22;19847;48.670;9.242;2022-07-26T04:29:58;21.10;99.90
32664;DHT22;19847;48.670;9.242;2022-07-26T04:33:20;21.10;99.90
32664;DHT22;19847;48.670;9.242;2022-07-26T04:36:42;21.10;99.90
32664;DHT22;19847;48.670;9.242;2022-07-26T04:40:05;21.00;99.90
32664;DHT22;19847;48.670;9.242;2022-07-26T04:43:27;20.90;99.90
32664;DHT22;19847;48.670;9.242;2022-07-26T04:46:50;20.90;99.90
32664;DHT22;19847;48.670;9.242;2022-07-26T04:50:12;20.90;99.90
32664;DHT22;19847;48.670;9.242;2022-07-26T04:53:36;20.80;99.90
32664;DHT22;19847;48.670;9.242;2022-07-26T04:56:57;20.90;99.90
32664;DHT22;19847;48.670;9.242;2022-07-26T05:00:21;20.90;99.90
32664;DHT22;19847;48.670;9.242;2022-07-26T05:03:46;20.90;99.90
32664;DHT22;19847;48.670;9.242;2022-07-26T05:07:07;21.10;99.90
32664;DHT22;19847;48.670;9.242;2022-07-26T05:10:31;21.30;99.90
32664;DHT22;19847;48.670;9.242;2022-07-26T05:13:53;21.30;99.90
32664;DHT22;19847;48.670;9.242;2022-07-26T05:17:15;21.40;99.90
32664;DHT22;19847;48.670;9.242;2022-07-26T05:20:40;21.60;99.90
32664;DHT22;19847;48.670;9.242;2022-07-26T05:24:02;21.90;99.90
32664;DHT22;19847;48.670;9.242;2022-07-26T05:27:28;22.10;99.90
32664;DHT22;19847;48.670;9.242;2022-07-26T05:30:50;22.30;99.90
32664;DHT22;19847;48.670;9.242;2022-07-26T05:34:12;22.60;99.90
32664;DHT22;19847;48.670;9.242;2022-07-26T05:37:35;22.80;99.90
32664;DHT22;19847;48.670;9.242;2022-07-26T05:40:57;23.00;99.90
32664;DHT22;19847;48.670;9.242;2022-07-26T05:44:19;23.10;99.90
32664;DHT22;19847;48.670;9.242;2022-07-26T05:47:41;23.20;99.90
32664;DHT22;19847;48.670;9.242;2022-07-26T05:51:03;23.70;99.90
32664;DHT22;19847;48.670;9.242;2022-07-26T05:54:26;24.50;99.90
32664;DHT22;19847;48.670;9.242;2022-07-26T05:57:48;25.30;99.90
32664;DHT22;19847;48.670;9.242;2022-07-26T06:01:10;25.90;99.90
32664;DHT22;19847;48.670;9.242;2022-07-26T06:04:33;27.40;97.30
32664;DHT22;19847;48.670;9.242;2022-07-26T06:07:55;28.30;94.60
32664;DHT22;19847;48.670;9.242;2022-07-26T06:11:18;29.60;91.00
32664;DHT22;19847;48.670;9.242;2022-07-26T06:14:40;31.10;89.50
32664;DHT22;19847;48.670;9.242;2022-07-26T06:18:02;31.70;78.40
32664;DHT22;19847;48.670;9.242;2022-07-26T06:21:24;30.70;79.50
32664;DHT22;19847;48.670;9.242;2022-07-26T06:24:46;29.00;81.80
32664;DHT22;19847;48.670;9.242;2022-07-26T06:28:09;27.40;85.20
32664;DHT22;19847;48.670;9.242;2022-07-26T06:31:31;26.00;90.50
32664;DHT22;19847;48.670;9.242;2022-07-26T06:34:53;25.10;92.00
32664;DHT22;19847;48.670;9.242;2022-07-26T06:38:15;24.60;93.50
32664;DHT22;19847;48.670;9.242;2022-07-26T06:41:37;24.40;94.00
32664;DHT22;19847;48.670;9.242;2022-07-26T06:45:01;24.30;94.10
32664;DHT22;19847;48.670;9.242;2022-07-26T06:48:23;24.00;94.80
32664;DHT22;19847;48.670;9.242;2022-07-26T06:51:45;24.10;95.70
32664;DHT22;19847;48.670;9.242;2022-07-26T06:55:07;24.20;95.10
32664;DHT22;19847;48.670;9.242;2022-07-26T06:58:33;24.60;93.30
32664;DHT22;19847;48.670;9.242;2022-07-26T07:01:56;24.90;92.40
32664;DHT22;19847;48.670;9.242;2022-07-26T07:05:21;25.00;92.90
32664;DHT22;19847;48.670;9.242;2022-07-26T07:08:43;25.30;91.80
32664;DHT22;19847;48.670;9.242;2022-07-26T07:12:06;25.70;90.80
32664;DHT22;19847;48.670;9.242;2022-07-26T07:15:31;26.20;90.40
32664;DHT22;19847;48.670;9.242;2022-07-26T07:18:54;27.10;87.80
32664;DHT22;19847;48.670;9.242;2022-07-26T07:22:16;27.80;81.70
32664;DHT22;19847;48.670;9.242;2022-07-26T07:25:38;27.60;82.40
32664;DHT22;19847;48.670;9.242;2022-07-26T07:29:01;28.00;80.20
32664;DHT22;19847;48.670;9.242;2022-07-26T07:32:25;28.40;77.30
32664;DHT22;19847;48.670;9.242;2022-07-26T07:35:48;29.10;76.70
32664;DHT22;19847;48.670;9.242;2022-07-26T07:39:10;30.00;75.20
32664;DHT22;19847;48.670;9.242;2022-07-26T07:42:38;32.00;68.90
32664;DHT22;19847;48.670;9.242;2022-07-26T07:46:00;33.00;62.30
32664;DHT22;19847;48.670;9.242;2022-07-26T07:49:22;34.30;60.00
32664;DHT22;19847;48.670;9.242;2022-07-26T07:52:45;35.20;56.30
32664;DHT22;19847;48.670;9.242;2022-07-26T07:56:08;35.10;56.50
32664;DHT22;19847;48.670;9.242;2022-07-26T07:59:30;34.60;55.70
32664;DHT22;19847;48.670;9.242;2022-07-26T08:02:52;35.20;55.00
32664;DHT22;19847;48.670;9.242;2022-07-26T08:06:14;35.90;54.70
32664;DHT22;19847;48.670;9.242;2022-07-26T08:09:37;34.40;54.10
32664;DHT22;19847;48.670;9.242;2022-07-26T08:13:03;35.50;54.50
32664;DHT22;19847;48.670;9.242;2022-07-26T08:16:27;35.80;53.00
32664;DHT22;19847;48.670;9.242;2022-07-26T08:19:49;35.80;51.40
32664;DHT22;19847;48.670;9.242;2022-07-26T08:23:11;35.70;49.50
32664;DHT22;19847;48.670;9.242;2022-07-26T08:26:34;34.90;50.70
32664;DHT22;19847;48.670;9.242;2022-07-26T08:29:56;32.90;51.80
32664;DHT22;19847;48.670;9.242;2022-07-26T08:33:17;31.50;54.40
32664;DHT22;19847;48.670;9.242;2022-07-26T08:36:39;32.30;54.30
32664;DHT22;19847;48.670;9.242;2022-07-26T08:40:21;32.40;54.00
32664;DHT22;19847;48.670;9.242;2022-07-26T08:43:45;32.70;52.90
32664;DHT22;19847;48.670;9.242;2022-07-26T08:47:16;31.10;54.00
32664;DHT22;19847;48.670;9.242;2022-07-26T08:50:56;29.80;55.60
32664;DHT22;19847;48.670;9.242;2022-07-26T08:54:18;28.90;56.70
32664;DHT22;19847;48.670;9.242;2022-07-26T08:57:40;29.00;58.90
32664;DHT22;19847;48.670;9.242;2022-07-26T09:01:06;30.80;57.60
32664;DHT22;19847;48.670;9.242;2022-07-26T09:04:30;33.30;53.90
32664;DHT22;19847;48.670;9.242;2022-07-26T09:07:55;34.40;50.20
32664;DHT22;19847;48.670;9.242;2022-07-26T09:11:25;35.70;48.70
32664;DHT22;19847;48.670;9.242;2022-07-26T09:14:48;34.20;50.10
32664;DHT22;19847;48.670;9.242;2022-07-26T09:18:26;33.10;49.80
32664;DHT22;19847;48.670;9.242;2022-07-26T09:21:50;33.20;51.50
32664;DHT22;19847;48.670;9.242;2022-07-26T09:25:19;34.50;50.80
32664;DHT22;19847;48.670;9.242;2022-07-26T09:28:41;34.20;49.30
32664;DHT22;19847;48.670;9.242;2022-07-26T09:32:14;32.50;51.30
32664;DHT22;19847;48.670;9.242;2022-07-26T09:35:38;32.10;51.70
32664;DHT22;19847;48.670;9.242;2022-07-26T09:39:12;32.40;50.80
32664;DHT22;19847;48.670;9.242;2022-07-26T09:42:34;33.20;51.20
32664;DHT22;19847;48.670;9.242;2022-07-26T09:46:03;33.80;51.70
32664;DHT22;19847;48.670;9.242;2022-07-26T09:49:26;34.50;49.70
32664;DHT22;19847;48.670;9.242;2022-07-26T09:53:05;34.20;48.50
32664;DHT22;19847;48.670;9.242;2022-07-26T09:56:41;33.00;51.60
32664;DHT22;19847;48.670;9.242;2022-07-26T10:00:03;31.90;51.50
32664;DHT22;19847;48.670;9.242;2022-07-26T10:03:25;31.90;53.70
32664;DHT22;19847;48.670;9.242;2022-07-26T10:06:47;32.60;51.10
32664;DHT22;19847;48.670;9.242;2022-07-26T10:10:14;31.90;51.10
32664;DHT22;19847;48.670;9.242;2022-07-26T10:13:38;30.50;52.40
32664;DHT22;19847;48.670;9.242;2022-07-26T10:17:03;29.30;54.20
32664;DHT22;19847;48.670;9.242;2022-07-26T10:20:50;30.10;54.80
32664;DHT22;19847;48.670;9.242;2022-07-26T10:24:24;31.40;52.70
32664;DHT22;19847;48.670;9.242;2022-07-26T10:27:49;32.60;51.00
32664;DHT22;19847;48.670;9.242;2022-07-26T10:31:28;32.90;51.40
32664;DHT22;19847;48.670;9.242;2022-07-26T10:34:50;32.00;50.40
32664;DHT22;19847;48.670;9.242;2022-07-26T10:38:13;30.80;51.30
32664;DHT22;19847;48.670;9.242;2022-07-26T10:41:43;29.40;54.30
32664;DHT22;19847;48.670;9.242;2022-07-26T10:45:20;29.10;53.80
32664;DHT22;19847;48.670;9.242;2022-07-26T10:48:54;29.10;54.70
32664;DHT22;19847;48.670;9.242;2022-07-26T10:52:18;28.90;55.20
32664;DHT22;19847;48.670;9.242;2022-07-26T10:55:45;29.00;56.20
32664;DHT22;19847;48.670;9.242;2022-07-26T10:59:07;29.10;53.80
32664;DHT22;19847;48.670;9.242;2022-07-26T11:02:31;29.10;55.80
32664;DHT22;19847;48.670;9.242;2022-07-26T11:05:53;28.50;55.30
32664;DHT22;19847;48.670;9.242;2022-07-26T11:09:16;28.20;56.70
32664;DHT22;19847;48.670;9.242;2022-07-26T11:12:38;28.20;57.40
32664;DHT22;19847;48.670;9.242;2022-07-26T11:16:01;28.20;56.70
32664;DHT22;19847;48.670;9.242;2022-07-26T11:19:24;28.40;56.40
32664;DHT22;19847;48.670;9.242;2022-07-26T11:22:47;28.50;53.90
32664;DHT22;19847;48.670;9.242;2022-07-26T11:26:12;28.30;55.10
32664;DHT22;19847;48.670;9.242;2022-07-26T11:29:36;28.00;56.40
32664;DHT22;19847;48.670;9.242;2022-07-26T11:33:01;28.20;56.80
32664;DHT22;19847;48.670;9.242;2022-07-26T11:36:35;28.20;55.90
32664;DHT22;19847;48.670;9.242;2022-07-26T11:39:58;28.50;55.30
32664;DHT22;19847;48.670;9.242;2022-07-26T11:43:19;28.20;55.90
32664;DHT22;19847;48.670;9.242;2022-07-26T11:46:41;28.00;55.50
32664;DHT22;19847;48.670;9.242;2022-07-26T11:50:05;28.10;58.40
32664;DHT22;19847;48.670;9.242;2022-07-26T11:53:45;28.20;55.60
32664;DHT22;19847;48.670;9.242;2022-07-26T11:57:07;27.70;56.70
32664;DHT22;19847;48.670;9.242;2022-07-26T12:00:29;27.30;57.40
32664;DHT22;19847;48.670;9.242;2022-07-26T12:03:52;27.10;58.30
32664;DHT22;19847;48.670;9.242;2022-07-26T12:07:15;26.90;58.90
32664;DHT22;19847;48.670;9.242;2022-07-26T12:10:39;27.00;57.30
32664;DHT22;19847;48.670;9.242;2022-07-26T12:14:01;26.90;57.20
32664;DHT22;19847;48.670;9.242;2022-07-26T12:17:24;27.00;57.60
32664;DHT22;19847;48.670;9.242;2022-07-26T12:20:56;26.90;57.30
32664;DHT22;19847;48.670;9.242;2022-07-26T12:24:45;27.00;58.50
32664;DHT22;19847;48.670;9.242;2022-07-26T12:28:09;26.70;57.10
32664;DHT22;19847;48.670;9.242;2022-07-26T12:31:31;26.50;57.60
32664;DHT22;19847;48.670;9.242;2022-07-26T12:34:56;26.80;58.10
32664;DHT22;19847;48.670;9.242;2022-07-26T12:38:38;27.30;58.60
32664;DHT22;19847;48.670;9.242;2022-07-26T12:42:19;27.70;58.60
32664;DHT22;19847;48.670;9.242;2022-07-26T12:45:43;27.90;55.60
32664;DHT22;19847;48.670;9.242;2022-07-26T12:49:06;27.50;56.00
32664;DHT22;19847;48.670;9.242;2022-07-26T12:52:28;27.20;55.60
32664;DHT22;19847;48.670;9.242;2022-07-26T12:55:50;27.00;56.30
32664;DHT22;19847;48.670;9.242;2022-07-26T12:59:12;26.70;57.50
32664;DHT22;19847;48.670;9.242;2022-07-26T13:02:41;26.80;57.60
32664;DHT22;19847;48.670;9.242;2022-07-26T13:06:04;26.90;57.60
32664;DHT22;19847;48.670;9.242;2022-07-26T13:09:26;26.90;55.50
32664;DHT22;19847;48.670;9.242;2022-07-26T13:12:48;26.90;56.20
32664;DHT22;19847;48.670;9.242;2022-07-26T13:16:10;26.90;55.60
32664;DHT22;19847;48.670;9.242;2022-07-26T13:19:35;26.50;56.80
32664;DHT22;19847;48.670;9.242;2022-07-26T13:22:57;26.50;56.00
32664;DHT22;19847;48.670;9.242;2022-07-26T13:26:20;26.60;56.40
32664;DHT22;19847;48.670;9.242;2022-07-26T13:29:43;26.60;56.40
32664;DHT22;19847;48.670;9.242;2022-07-26T13:33:05;26.30;57.40
32664;DHT22;19847;48.670;9.242;2022-07-26T13:36:28;26.30;56.40
32664;DHT22;19847;48.670;9.242;2022-07-26T13:39:51;26.40;56.00
32664;DHT22;19847;48.670;9.242;2022-07-26T13:43:13;26.50;56.90
32664;DHT22;19847;48.670;9.242;2022-07-26T13:46:35;26.80;57.40
32664;DHT22;19847;48.670;9.242;2022-07-26T13:49:59;27.10;56.20
32664;DHT22;19847;48.670;9.242;2022-07-26T13:53:22;27.30;56.10
32664;DHT22;19847;48.670;9.242;2022-07-26T13:56:45;27.30;54.20
32664;DHT22;19847;48.670;9.242;2022-07-26T14:00:08;27.10;54.60
32664;DHT22;19847;48.670;9.242;2022-07-26T14:03:30;27.00;54.00
32664;DHT22;19847;48.670;9.242;2022-07-26T14:06:56;26.90;54.30
32664;DHT22;19847;48.670;9.242;2022-07-26T14:10:22;26.90;53.60
32664;DHT22;19847;48.670;9.242;2022-07-26T14:13:44;26.80;54.60
32664;DHT22;19847;48.670;9.242;2022-07-26T14:17:06;26.80;54.60
32664;DHT22;19847;48.670;9.242;2022-07-26T14:20:28;26.80;54.70
32664;DHT22;19847;48.670;9.242;2022-07-26T14:23:50;26.90;55.10
32664;DHT22;19847;48.670;9.242;2022-07-26T14:27:13;27.00;54.10
32664;DHT22;19847;48.670;9.242;2022-07-26T14:30:35;26.80;52.80
32664;DHT22;19847;48.670;9.242;2022-07-26T14:33:57;26.60;54.40
32664;DHT22;19847;48.670;9.242;2022-07-26T14:37:19;26.50;55.70
32664;DHT22;19847;48.670;9.242;2022-07-26T14:41:00;26.40;54.00
32664;DHT22;19847;48.670;9.242;2022-07-26T14:44:24;26.20;55.40
32664;DHT22;19847;48.670;9.242;2022-07-26T14:47:46;26.10;54.60
32664;DHT22;19847;48.670;9.242;2022-07-26T14:51:08;26.20;54.00
32664;DHT22;19847;48.670;9.242;2022-07-26T14:54:31;26.20;54.00
32664;DHT22;19847;48.670;9.242;2022-07-26T14:57:53;26.10;55.10
32664;DHT22;19847;48.670;9.242;2022-07-26T15:01:16;26.10;54.80
32664;DHT22;19847;48.670;9.242;2022-07-26T15:04:38;26.30;54.00
32664;DHT22;19847;48.670;9.242;2022-07-26T15:08:00;26.40;54.30
32664;DHT22;19847;48.670;9.242;2022-07-26T15:11:27;26.40;54.60
32664;DHT22;19847;48.670;9.242;2022-07-26T15:14:49;26.50;53.70
32664;DHT22;19847;48.670;9.242;2022-07-26T15:18:13;26.70;53.80
32664;DHT22;19847;48.670;9.242;2022-07-26T15:21:35;26.70;53.10
32664;DHT22;19847;48.670;9.242;2022-07-26T15:24:57;26.70;52.60
32664;DHT22;19847;48.670;9.242;2022-07-26T15:28:19;26.70;53.60
32664;DHT22;19847;48.670;9.242;2022-07-26T15:31:41;26.70;53.40
32664;DHT22;19847;48.670;9.242;2022-07-26T15:35:05;26.50;53.40
32664;DHT22;19847;48.670;9.242;2022-07-26T15:38:34;26.60;53.40
32664;DHT22;19847;48.670;9.242;2022-07-26T15:42:00;26.60;53.90
32664;DHT22;19847;48.670;9.242;2022-07-26T15:45:28;26.70;53.30
32664;DHT22;19847;48.670;9.242;2022-07-26T15:48:53;26.80;54.20
32664;DHT22;19847;48.670;9.242;2022-07-26T15:52:17;27.10;53.20
32664;DHT22;19847;48.670;9.242;2022-07-26T15:55:39;27.40;52.10
32664;DHT22;19847;48.670;9.242;2022-07-26T15:59:00;27.50;52.10
32664;DHT22;19847;48.670;9.242;2022-07-26T16:02:22;27.60;52.50
32664;DHT22;19847;48.670;9.242;2022-07-26T16:05:45;27.60;51.90
32664;DHT22;19847;48.670;9.242;2022-07-26T16:09:08;27.50;52.90
32664;DHT22;19847;48.670;9.242;2022-07-26T16:12:40;27.20;53.30
32664;DHT22;19847;48.670;9.242;2022-07-26T16:16:02;26.90;53.40
32664;DHT22;19847;48.670;9.242;2022-07-26T16:19:24;26.50;54.00
32664;DHT22;19847;48.670;9.242;2022-07-26T16:22:47;26.30;54.00
32664;DHT22;19847;48.670;9.242;2022-07-26T16:26:10;26.00;54.00
32664;DHT22;19847;48.670;9.242;2022-07-26T16:29:33;25.90;54.40
32664;DHT22;19847;48.670;9.242;2022-07-26T16:33:00;25.70;55.10
32664;DHT22;19847;48.670;9.242;2022-07-26T16:36:21;25.60;54.50
32664;DHT22;19847;48.670;9.242;2022-07-26T16:39:43;25.60;55.00
32664;DHT22;19847;48.670;9.242;2022-07-26T16:43:07;25.60;55.30
32664;DHT22;19847;48.670;9.242;2022-07-26T16:46:32;25.70;55.00
32664;DHT22;19847;48.670;9.242;2022-07-26T16:49:54;25.70;55.00
32664;DHT22;19847;48.670;9.242;2022-07-26T16:53:16;25.50;55.70
32664;DHT22;19847;48.670;9.242;2022-07-26T16:56:38;25.30;55.90
32664;DHT22;19847;48.670;9.242;2022-07-26T17:00:01;25.10;56.30
32664;DHT22;19847;48.670;9.242;2022-07-26T17:03:23;25.10;56.80
32664;DHT22;19847;48.670;9.242;2022-07-26T17:06:45;25.10;56.50
32664;DHT22;19847;48.670;9.242;2022-07-26T17:10:27;25.10;57.00
32664;DHT22;19847;48.670;9.242;2022-07-26T17:13:49;25.20;57.60
32664;DHT22;19847;48.670;9.242;2022-07-26T17:17:12;25.30;57.10
32664;DHT22;19847;48.670;9.242;2022-07-26T17:20:34;25.30;57.50
32664;DHT22;19847;48.670;9.242;2022-07-26T17:23:56;25.30;58.20
32664;DHT22;19847;48.670;9.242;2022-07-26T17:27:18;25.30;58.70
32664;DHT22;19847;48.670;9.242;2022-07-26T17:30:39;25.40;58.20
32664;DHT22;19847;48.670;9.242;2022-07-26T17:34:03;25.50;57.90
32664;DHT22;19847;48.670;9.242;2022-07-26T17:37:25;25.50;58.10
32664;DHT22;19847;48.670;9.242;2022-07-26T17:40:49;25.40;57.30
32664;DHT22;19847;48.670;9.242;2022-07-26T17:44:11;25.30;58.00
32664;DHT22;19847;48.670;9.242;2022-07-26T17:47:33;25.10;58.20
32664;DHT22;19847;48.670;9.242;2022-07-26T17:50:57;25.00;58.00
32664;DHT22;19847;48.670;9.242;2022-07-26T17:54:21;25.00;58.30
32664;DHT22;19847;48.670;9.242;2022-07-26T17:57:44;24.90;58.80
32664;DHT22;19847;48.670;9.242;2022-07-26T18:01:06;24.90;58.70
32664;DHT22;19847;48.670;9.242;2022-07-26T18:04:28;24.80;59.20
32664;DHT22;19847;48.670;9.242;2022-07-26T18:07:56;24.70;59.20
32664;DHT22;19847;48.670;9.242;2022-07-26T18:11:18;24.60;59.40
32664;DHT22;19847;48.670;9.242;2022-07-26T18:14:41;24.50;59.20
32664;DHT22;19847;48.670;9.242;2022-07-26T18:18:03;24.40;59.60
32664;DHT22;19847;48.670;9.242;2022-07-26T18:21:27;24.40;59.70
32664;DHT22;19847;48.670;9.242;2022-07-26T18:24:52;24.40;59.80
32664;DHT22;19847;48.670;9.242;2022-07-26T18:28:14;24.30;59.80
32664;DHT22;19847;48.670;9.242;2022-07-26T18:31:36;24.20;60.00
32664;DHT22;19847;48.670;9.242;2022-07-26T18:34:58;24.10;60.60
32664;DHT22;19847;48.670;9.242;2022-07-26T18:38:20;24.00;61.00
32664;DHT22;19847;48.670;9.242;2022-07-26T18:41:44;24.00;62.00
32664;DHT22;19847;48.670;9.242;2022-07-26T18:45:07;24.00;61.20
32664;DHT22;19847;48.670;9.242;2022-07-26T18:48:29;23.90;61.00
32664;DHT22;19847;48.670;9.242;2022-07-26T18:51:53;23.90;61.10
32664;DHT22;19847;48.670;9.242;2022-07-26T18:55:15;23.80;61.60
32664;DHT22;19847;48.670;9.242;2022-07-26T18:58:38;23.70;61.90
32664;DHT22;19847;48.670;9.242;2022-07-26T19:02:00;23.60;62.50
32664;DHT22;19847;48.670;9.242;2022-07-26T19:05:23;23.50;62.60
32664;DHT22;19847;48.670;9.242;2022-07-26T19:08:45;23.40;63.20
32664;DHT22;19847;48.670;9.242;2022-07-26T19:12:07;23.30;63.30
32664;DHT22;19847;48.670;9.242;2022-07-26T19:15:32;23.30;63.80
32664;DHT22;19847;48.670;9.242;2022-07-26T19:18:54;23.20;63.70
32664;DHT22;19847;48.670;9.242;2022-07-26T19:22:18;23.10;63.70
32664;DHT22;19847;48.670;9.242;2022-07-26T19:25:41;23.00;64.30
32664;DHT22;19847;48.670;9.242;2022-07-26T19:29:03;23.00;64.40
32664;DHT22;19847;48.670;9.242;2022-07-26T19:32:26;22.90;65.20
32664;DHT22;19847;48.670;9.242;2022-07-26T19:35:54;22.90;64.60
32664;DHT22;19847;48.670;9.242;2022-07-26T19:39:16;22.90;64.30
32664;DHT22;19847;48.670;9.242;2022-07-26T19:42:38;22.90;64.60
32664;DHT22;19847;48.670;9.242;2022-07-26T19:46:01;22.90;65.00
32664;DHT22;19847;48.670;9.242;2022-07-26T19:49:24;22.80;65.50
32664;DHT22;19847;48.670;9.242;2022-07-26T19:52:46;22.80;65.00
32664;DHT22;19847;48.670;9.242;2022-07-26T19:56:08;22.80;65.60
32664;DHT22;19847;48.670;9.242;2022-07-26T19:59:30;22.80;65.40
32664;DHT22;19847;48.670;9.242;2022-07-26T20:02:52;22.80;65.90
32664;DHT22;19847;48.670;9.242;2022-07-26T20:06:17;22.70;65.90
32664;DHT22;19847;48.670;9.242;2022-07-26T20:09:40;22.70;66.00
32664;DHT22;19847;48.670;9.242;2022-07-26T20:13:02;22.70;66.20
32664;DHT22;19847;48.670;9.242;2022-07-26T20:16:24;22.60;65.80
32664;DHT22;19847;48.670;9.242;2022-07-26T20:19:46;22.50;66.50
32664;DHT22;19847;48.670;9.242;2022-07-26T20:23:09;22.50;67.90
32664;DHT22;19847;48.670;9.242;2022-07-26T20:26:31;22.50;67.60
32664;DHT22;19847;48.670;9.242;2022-07-26T20:29:53;22.50;67.60
32664;DHT22;19847;48.670;9.242;2022-07-26T20:33:21;22.50;67.60
32664;DHT22;19847;48.670;9.242;2022-07-26T20:36:43;22.40;68.00
32664;DHT22;19847;48.670;9.242;2022-07-26T20:40:07;22.40;68.50
32664;DHT22;19847;48.670;9.242;2022-07-26T20:43:30;22.40;68.70
32664;DHT22;19847;48.670;9.242;2022-07-26T20:46:54;22.30;69.00
32664;DHT22;19847;48.670;9.242;2022-07-26T20:50:16;22.20;69.50
32664;DHT22;19847;48.670;9.242;2022-07-26T20:53:38;22.10;70.10
32664;DHT22;19847;48.670;9.242;2022-07-26T20:57:01;22.10;70.50
32664;DHT22;19847;48.670;9.242;2022-07-26T21:00:25;22.10;70.10
32664;DHT22;19847;48.670;9.242;2022-07-26T21:03:47;22.00;70.50
32664;DHT22;19847;48.670;9.242;2022-07-26T21:07:09;22.00;70.70
32664;DHT22;19847;48.670;9.242;2022-07-26T21:10:30;21.90;71.40
32664;DHT22;19847;48.670;9.242;2022-07-26T21:13:54;21.80;71.90
32664;DHT22;19847;48.670;9.242;2022-07-26T21:17:16;21.80;72.60
32664;DHT22;19847;48.670;9.242;2022-07-26T21:20:39;21.70;72.40
32664;DHT22;19847;48.670;9.242;2022-07-26T21:24:01;21.50;73.60
32664;DHT22;19847;48.670;9.242;2022-07-26T21:27:23;21.40;73.50